Time,TemperatureF,DewpointF,PressureIn,WindDirection,WindDirectionDegrees,WindSpeedMPH,WindSpeedGustMPH,Humidity,HourlyPrecipIn,Conditions,Clouds,dailyrainin,SoftwareType,DateUTC
2013-09-13 00:01:00,58.8,42.2,29.97,NNW,338,6.7,6.7,54,0.00,,---,0.00,VWS V14.01,2013-09-13 04:01:00,
2013-09-13 00:02:00,58.8,42.2,29.97,NNW,338,6.7,6.7,54,0.00,,---,0.00,VWS V14.01,2013-09-13 04:02:00,
2013-09-13 00:03:00,58.8,42.2,29.97,NW,315,0.0,6.7,54,0.00,,---,0.00,VWS V14.01,2013-09-13 04:03:00,
2013-09-13 00:07:00,58.8,42.2,29.97,WNW,292,0.0,0.0,54,0.00,,---,0.00,VWS V14.01,2013-09-13 04:07:00,
2013-09-13 00:11:00,58.6,42.0,29.97,West,270,0.0,0.0,54,0.00,,---,0.00,VWS V14.01,2013-09-13 04:11:00,
2013-09-13 00:16:00,58.1,42.0,29.98,NW,315,0.0,5.3,55,0.00,,---,0.00,VWS V14.01,2013-09-13 04:16:00,
2013-09-13 00:21:00,57.9,41.8,29.98,NW,315,0.0,0.0,55,0.00,,---,0.00,VWS V14.01,2013-09-13 04:21:00,
2013-09-13 00:26:00,57.7,42.1,29.99,NW,315,0.0,0.0,56,0.00,,---,0.00,VWS V14.01,2013-09-13 04:26:00,
2013-09-13 00:31:00,57.3,41.8,29.99,NNW,338,0.0,0.0,56,0.00,,---,0.00,VWS V14.01,2013-09-13 04:31:00,
2013-09-13 00:36:00,57.0,41.5,29.99,NW,315,0.0,0.0,56,0.00,,---,0.00,VWS V14.01,2013-09-13 04:36:00,
2013-09-13 00:41:00,57.0,41.5,29.98,ESE,112,0.0,0.0,56,0.00,,---,0.00,VWS V14.01,2013-09-13 04:41:00,
2013-09-13 00:46:00,56.8,41.8,29.98,NW,315,0.0,0.0,57,0.00,,---,0.00,VWS V14.01,2013-09-13 04:46:00,
2013-09-13 00:51:00,56.4,41.4,29.98,NW,315,0.0,0.0,57,0.00,,---,0.00,VWS V14.01,2013-09-13 04:51:00,
2013-09-13 00:56:00,56.3,41.3,29.99,WNW,292,0.0,0.0,57,0.00,,---,0.00,VWS V14.01,2013-09-13 04:56:00,
2013-09-13 01:01:00,56.1,41.1,29.99,NNW,338,0.0,0.0,57,0.00,,---,0.00,VWS V14.01,2013-09-13 05:01:00,
2013-09-13 01:06:00,55.9,41.3,29.99,NNW,338,0.0,0.0,58,0.00,,---,0.00,VWS V14.01,2013-09-13 05:06:00,
2013-09-13 01:11:00,55.9,41.3,29.99,NNW,338,0.0,0.0,58,0.00,,---,0.00,VWS V14.01,2013-09-13 05:11:00,
2013-09-13 01:16:00,55.9,41.3,29.99,NW,315,0.0,0.0,58,0.00,,---,0.00,VWS V14.01,2013-09-13 05:16:00,
2013-09-13 01:21:00,55.7,41.2,29.99,WNW,292,0.0,0.0,58,0.00,,---,0.00,VWS V14.01,2013-09-13 05:21:00,
2013-09-13 01:26:00,55.5,41.0,29.99,NNW,338,0.0,0.0,58,0.00,,---,0.00,VWS V14.01,2013-09-13 05:26:00,
2013-09-13 01:31:00,55.2,41.1,29.99,NW,315,0.0,0.0,59,0.00,,---,0.00,VWS V14.01,2013-09-13 05:31:00,
2013-09-13 01:36:00,55.2,41.1,29.99,North,0,0.0,0.0,59,0.00,,---,0.00,VWS V14.01,2013-09-13 05:36:00,
2013-09-13 01:41:00,55.2,41.1,29.99,NW,315,0.0,0.0,59,0.00,,---,0.00,VWS V14.01,2013-09-13 05:41:00,
2013-09-13 01:46:00,55.0,41.0,29.99,North,0,0.0,0.0,59,0.00,,---,0.00,VWS V14.01,2013-09-13 05:46:00,
2013-09-13 01:51:00,55.0,41.4,29.99,NW,315,0.0,0.0,60,0.00,,---,0.00,VWS V14.01,2013-09-13 05:51:00,
2013-09-13 01:56:00,55.0,41.4,29.99,NW,315,0.0,0.0,60,0.00,,---,0.00,VWS V14.01,2013-09-13 05:56:00,
2013-09-13 02:01:00,55.0,41.4,29.99,NNW,338,0.0,0.0,60,0.00,,---,0.00,VWS V14.01,2013-09-13 06:01:00,
2013-09-13 02:06:00,54.8,41.2,29.99,NW,315,1.3,1.3,60,0.00,,---,0.00,VWS V14.01,2013-09-13 06:06:00,
2013-09-13 02:11:00,54.6,41.0,29.99,NNW,338,4.2,4.2,60,0.00,,---,0.00,VWS V14.01,2013-09-13 06:11:00,
2013-09-13 02:16:00,54.6,41.0,30.00,NE,45,0.0,0.0,60,0.00,,---,0.00,VWS V14.01,2013-09-13 06:16:00,
2013-09-13 02:21:00,54.6,41.4,30.00,NW,315,0.0,0.0,61,0.00,,---,0.00,VWS V14.01,2013-09-13 06:21:00,
2013-09-13 02:26:00,54.6,41.4,29.99,NE,45,0.0,0.0,61,0.00,,---,0.00,VWS V14.01,2013-09-13 06:26:00,
2013-09-13 02:31:00,55.0,41.8,29.99,WNW,292,0.0,0.0,61,0.00,,---,0.00,VWS V14.01,2013-09-13 06:31:00,
2013-09-13 02:36:00,55.0,41.8,29.99,NNW,338,0.0,0.0,61,0.00,,---,0.00,VWS V14.01,2013-09-13 06:36:00,
2013-09-13 02:41:00,54.8,41.6,29.99,West,270,0.0,4.0,61,0.00,,---,0.00,VWS V14.01,2013-09-13 06:41:00,
2013-09-13 02:46:00,54.5,41.8,30.00,NW,315,0.0,0.0,62,0.00,,---,0.00,VWS V14.01,2013-09-13 06:46:00,
2013-09-13 02:51:00,54.3,41.6,30.00,NNW,338,0.0,0.0,62,0.00,,---,0.00,VWS V14.01,2013-09-13 06:51:00,
2013-09-13 02:56:00,54.3,42.0,29.99,NW,315,0.0,0.0,63,0.00,,---,0.00,VWS V14.01,2013-09-13 06:56:00,
2013-09-13 03:01:00,54.3,42.0,30.00,NW,315,0.0,0.0,63,0.00,,---,0.00,VWS V14.01,2013-09-13 07:01:00,
2013-09-13 03:06:00,54.3,42.0,29.99,NW,315,0.0,0.0,63,0.00,,---,0.00,VWS V14.01,2013-09-13 07:06:00,
2013-09-13 03:11:00,54.3,42.0,29.99,NW,315,0.0,0.0,63,0.00,,---,0.00,VWS V14.01,2013-09-13 07:11:00,
2013-09-13 03:16:00,54.3,42.4,30.00,NW,315,0.0,0.0,64,0.00,,---,0.00,VWS V14.01,2013-09-13 07:16:00,
2013-09-13 03:21:00,54.1,42.2,30.00,WNW,292,0.0,0.0,64,0.00,,---,0.00,VWS V14.01,2013-09-13 07:21:00,
2013-09-13 03:26:00,53.9,42.0,30.00,WNW,292,0.0,0.0,64,0.00,,---,0.00,VWS V14.01,2013-09-13 07:26:00,
2013-09-13 03:31:00,53.7,42.2,30.00,West,270,0.0,0.0,65,0.00,,---,0.00,VWS V14.01,2013-09-13 07:31:00,
2013-09-13 03:36:00,53.7,42.2,30.00,ENE,68,0.0,0.0,65,0.00,,---,0.00,VWS V14.01,2013-09-13 07:36:00,
2013-09-13 03:41:00,53.9,42.8,30.00,WNW,292,0.0,0.0,66,0.00,,---,0.00,VWS V14.01,2013-09-13 07:41:00,
2013-09-13 03:46:00,53.9,42.8,30.00,NW,315,0.0,0.0,66,0.00,,---,0.00,VWS V14.01,2013-09-13 07:46:00,
2013-09-13 03:51:00,53.7,42.6,30.00,NNW,338,0.0,0.0,66,0.00,,---,0.00,VWS V14.01,2013-09-13 07:51:00,
2013-09-13 03:56:00,53.7,42.6,30.01,NE,45,0.0,0.0,66,0.00,,---,0.00,VWS V14.01,2013-09-13 07:56:00,
2013-09-13 04:01:00,53.7,42.6,30.01,NW,315,8.5,8.5,66,0.00,,---,0.00,VWS V14.01,2013-09-13 08:01:00,
2013-09-13 04:06:00,53.4,42.7,30.01,NNW,338,0.0,0.0,67,0.00,,---,0.00,VWS V14.01,2013-09-13 08:06:00,
2013-09-13 04:11:00,53.2,42.9,30.01,NW,315,0.0,0.0,68,0.00,,---,0.00,VWS V14.01,2013-09-13 08:11:00,
2013-09-13 04:16:00,53.2,42.9,30.01,NE,45,0.0,0.0,68,0.00,,---,0.00,VWS V14.01,2013-09-13 08:16:00,
2013-09-13 04:21:00,53.2,42.9,30.01,NNW,338,0.0,0.0,68,0.00,,---,0.00,VWS V14.01,2013-09-13 08:21:00,
2013-09-13 04:26:00,52.8,42.9,30.01,NW,315,0.0,3.3,69,0.00,,---,0.00,VWS V14.01,2013-09-13 08:26:00,
2013-09-13 04:31:00,52.8,42.9,30.01,NW,315,0.0,0.0,69,0.00,,---,0.00,VWS V14.01,2013-09-13 08:31:00,
2013-09-13 04:36:00,52.7,42.8,30.01,NW,315,0.0,0.0,69,0.00,,---,0.00,VWS V14.01,2013-09-13 08:36:00,
2013-09-13 04:41:00,52.7,43.2,30.01,NW,315,0.0,7.8,70,0.00,,---,0.00,VWS V14.01,2013-09-13 08:41:00,
2013-09-13 04:46:00,52.5,43.0,30.01,NNW,338,0.0,0.0,70,0.00,,---,0.00,VWS V14.01,2013-09-13 08:46:00,
2013-09-13 04:51:00,52.5,43.0,30.01,NW,315,2.9,2.9,70,0.00,,---,0.00,VWS V14.01,2013-09-13 08:51:00,
2013-09-13 04:56:00,52.5,43.0,30.01,NNW,338,7.3,7.3,70,0.00,,---,0.00,VWS V14.01,2013-09-13 08:56:00,
2013-09-13 05:01:00,52.5,43.0,30.01,NW,315,0.0,0.0,70,0.00,,---,0.00,VWS V14.01,2013-09-13 09:01:00,
2013-09-13 05:07:00,52.5,43.0,30.01,NW,315,0.0,0.0,70,0.00,,---,0.00,VWS V14.01,2013-09-13 09:07:00,
2013-09-13 05:12:00,52.5,43.4,30.02,SW,225,1.7,1.7,71,0.00,,---,0.00,VWS V14.01,2013-09-13 09:12:00,
2013-09-13 05:17:00,52.5,43.4,30.02,NW,315,4.0,4.0,71,0.00,,---,0.00,VWS V14.01,2013-09-13 09:17:00,
2013-09-13 05:22:00,52.5,43.4,30.02,NW,315,0.0,0.0,71,0.00,,---,0.00,VWS V14.01,2013-09-13 09:22:00,
2013-09-13 05:27:00,52.5,43.4,30.02,NNW,338,0.0,4.0,71,0.00,,---,0.00,VWS V14.01,2013-09-13 09:27:00,
2013-09-13 05:32:00,52.3,43.2,30.02,NW,315,0.0,0.0,71,0.00,,---,0.00,VWS V14.01,2013-09-13 09:32:00,
2013-09-13 05:37:00,52.3,43.5,30.02,NW,315,0.0,0.0,72,0.00,,---,0.00,VWS V14.01,2013-09-13 09:37:00,
2013-09-13 05:42:00,52.3,43.2,30.02,NNW,338,0.0,0.0,71,0.00,,---,0.00,VWS V14.01,2013-09-13 09:42:00,
2013-09-13 05:47:00,52.3,43.5,30.02,NE,45,0.0,0.0,72,0.00,,---,0.00,VWS V14.01,2013-09-13 09:47:00,
2013-09-13 05:52:00,52.5,43.4,30.02,WNW,292,0.0,0.0,71,0.00,,---,0.00,VWS V14.01,2013-09-13 09:52:00,
2013-09-13 05:57:00,52.5,43.4,30.02,North,0,0.0,0.0,71,0.00,,---,0.00,VWS V14.01,2013-09-13 09:57:00,
2013-09-13 06:02:00,52.5,43.4,30.02,NE,45,0.0,0.0,71,0.00,,---,0.00,VWS V14.01,2013-09-13 10:02:00,
2013-09-13 06:07:00,52.5,43.4,30.02,NW,315,0.0,0.0,71,0.00,,---,0.00,VWS V14.01,2013-09-13 10:07:00,
2013-09-13 06:12:00,52.7,43.6,30.02,NW,315,0.0,0.0,71,0.00,,---,0.00,VWS V14.01,2013-09-13 10:12:00,
2013-09-13 06:17:00,52.7,43.6,30.02,NNW,338,0.0,0.0,71,0.00,,---,0.00,VWS V14.01,2013-09-13 10:17:00,
2013-09-13 06:22:00,52.8,44.0,30.02,NW,315,0.0,0.0,72,0.00,,---,0.00,VWS V14.01,2013-09-13 10:22:00,
2013-09-13 06:27:00,52.5,43.8,30.02,WNW,292,0.0,0.0,72,0.02,,---,0.02,VWS V14.01,2013-09-13 10:27:00,
2013-09-13 06:32:00,52.3,43.5,30.03,NNW,338,0.0,0.0,72,0.04,,---,0.04,VWS V14.01,2013-09-13 10:32:00,
2013-09-13 06:37:00,51.9,43.5,30.03,NE,45,0.0,0.0,73,0.06,,---,0.06,VWS V14.01,2013-09-13 10:37:00,
2013-09-13 06:42:00,51.8,43.4,30.03,NE,45,0.0,1.1,73,0.08,,---,0.08,VWS V14.01,2013-09-13 10:42:00,
2013-09-13 06:47:00,51.8,43.4,30.03,NNE,22,0.0,0.0,73,0.08,,---,0.08,VWS V14.01,2013-09-13 10:47:00,
2013-09-13 06:52:00,51.8,43.4,30.03,North,0,0.0,0.0,73,0.08,,---,0.08,VWS V14.01,2013-09-13 10:52:00,
2013-09-13 06:58:00,51.8,43.4,30.03,NNW,338,0.0,0.0,73,0.08,,---,0.08,VWS V14.01,2013-09-13 10:58:00,
2013-09-13 07:03:00,51.8,-6.6,30.03,ENE,68,0.0,0.0,73,0.08,,---,0.08,VWS V14.01,2013-09-13 11:03:00,
2013-09-13 07:08:00,51.4,43.0,30.04,NNE,22,0.0,0.0,73,0.08,,---,0.08,VWS V14.01,2013-09-13 11:08:00,
2013-09-13 07:13:00,51.4,43.0,30.04,North,0,0.0,0.0,73,0.08,,---,0.08,VWS V14.01,2013-09-13 11:13:00,
2013-09-13 07:18:00,51.4,43.0,30.04,NE,45,0.0,0.0,73,0.08,,---,0.08,VWS V14.01,2013-09-13 11:18:00,
2013-09-13 07:23:00,51.2,42.9,30.04,NNW,338,0.0,0.0,73,0.08,,---,0.08,VWS V14.01,2013-09-13 11:23:00,
2013-09-13 07:28:00,51.0,42.7,30.04,West,270,0.0,0.0,73,0.06,,---,0.08,VWS V14.01,2013-09-13 11:28:00,
2013-09-13 07:33:00,51.0,42.7,30.04,NNW,338,0.0,0.0,73,0.04,,---,0.08,VWS V14.01,2013-09-13 11:33:00,
2013-09-13 07:38:00,51.0,42.7,30.05,NNW,338,0.0,0.0,73,0.02,,---,0.08,VWS V14.01,2013-09-13 11:38:00,
2013-09-13 07:43:00,50.9,42.6,30.05,NW,315,0.0,0.0,73,0.00,,---,0.08,VWS V14.01,2013-09-13 11:43:00,
2013-09-13 07:48:00,50.7,42.4,30.05,North,0,0.0,0.0,73,0.00,,---,0.08,VWS V14.01,2013-09-13 11:48:00,
2013-09-13 07:53:00,50.5,42.5,30.05,NW,315,0.0,0.0,74,0.00,,---,0.08,VWS V14.01,2013-09-13 11:53:00,
2013-09-13 07:58:00,50.3,42.3,30.05,WNW,292,0.0,0.0,74,0.00,,---,0.08,VWS V14.01,2013-09-13 11:58:00,
2013-09-13 08:03:00,50.3,42.3,30.05,NNW,338,0.0,0.0,74,0.00,,---,0.08,VWS V14.01,2013-09-13 12:03:00,
2013-09-13 08:08:00,50.3,42.3,30.06,WNW,292,0.0,0.0,74,0.00,,---,0.08,VWS V14.01,2013-09-13 12:08:00,
2013-09-13 08:13:00,50.1,42.2,30.06,NNW,338,0.0,0.0,74,0.00,,---,0.08,VWS V14.01,2013-09-13 12:13:00,
2013-09-13 08:18:00,50.1,42.2,30.06,North,0,0.0,0.0,74,0.00,,---,0.08,VWS V14.01,2013-09-13 12:18:00,
2013-09-13 08:23:00,50.0,42.0,30.07,NNE,22,0.0,0.0,74,0.00,,---,0.08,VWS V14.01,2013-09-13 12:23:00,
2013-09-13 08:28:00,49.8,41.9,30.06,North,0,0.0,0.0,74,0.00,,---,0.08,VWS V14.01,2013-09-13 12:28:00,
2013-09-13 08:33:00,49.8,42.2,30.07,West,270,0.0,0.0,75,0.00,,---,0.08,VWS V14.01,2013-09-13 12:33:00,
2013-09-13 08:38:00,49.8,42.2,30.07,NW,315,0.0,0.0,75,0.00,,---,0.08,VWS V14.01,2013-09-13 12:38:00,
2013-09-13 08:43:00,49.8,42.2,30.07,WNW,292,0.0,0.0,75,0.00,,---,0.08,VWS V14.01,2013-09-13 12:43:00,
2013-09-13 08:48:00,50.1,42.5,30.07,NE,45,0.0,0.0,75,0.00,,---,0.08,VWS V14.01,2013-09-13 12:48:00,
2013-09-13 08:53:00,50.3,42.3,30.07,NE,45,0.0,0.0,74,0.00,,---,0.08,VWS V14.01,2013-09-13 12:53:00,
2013-09-13 08:58:00,50.5,42.5,30.07,NE,45,0.0,0.0,74,0.00,,---,0.08,VWS V14.01,2013-09-13 12:58:00,
2013-09-13 09:03:00,50.7,42.7,30.07,WNW,292,0.0,0.0,74,0.00,,---,0.08,VWS V14.01,2013-09-13 13:03:00,
2013-09-13 09:08:00,51.0,42.7,30.07,NE,45,13.4,13.4,73,0.00,,---,0.08,VWS V14.01,2013-09-13 13:08:00,
2013-09-13 09:13:00,51.2,42.9,30.07,NE,45,0.0,0.0,73,0.00,,---,0.08,VWS V14.01,2013-09-13 13:13:00,
2013-09-13 09:18:00,51.8,43.1,30.07,NE,45,0.0,0.0,72,0.00,,---,0.08,VWS V14.01,2013-09-13 13:18:00,
2013-09-13 09:23:00,51.9,42.8,30.07,NNE,22,0.0,0.0,71,0.00,,---,0.08,VWS V14.01,2013-09-13 13:23:00,
2013-09-13 09:28:00,52.3,42.8,30.07,North,0,2.9,2.9,70,0.00,,---,0.08,VWS V14.01,2013-09-13 13:28:00,
2013-09-13 09:33:00,52.5,42.6,30.07,NE,45,9.1,9.1,69,0.00,,---,0.08,VWS V14.01,2013-09-13 13:33:00,
2013-09-13 09:38:00,52.7,42.8,30.08,North,0,3.8,3.8,69,0.00,,---,0.08,VWS V14.01,2013-09-13 13:38:00,
2013-09-13 09:43:00,52.8,42.2,30.08,NNW,338,4.2,4.2,67,0.00,,---,0.08,VWS V14.01,2013-09-13 13:43:00,
2013-09-13 09:48:00,52.8,42.2,30.08,NE,45,0.0,0.0,67,0.00,,---,0.08,VWS V14.01,2013-09-13 13:48:00,
2013-09-13 09:53:00,53.2,42.2,30.08,NNW,338,2.6,2.6,66,0.00,,---,0.08,VWS V14.01,2013-09-13 13:53:00,
2013-09-13 09:58:00,52.8,41.8,30.08,NE,45,2.4,2.4,66,0.00,,---,0.08,VWS V14.01,2013-09-13 13:58:00,
2013-09-13 10:03:00,53.2,42.2,30.08,NE,45,1.7,1.7,66,0.00,,---,0.08,VWS V14.01,2013-09-13 14:03:00,
2013-09-13 10:08:00,53.4,41.9,30.08,NE,45,6.0,6.0,65,0.00,,---,0.08,VWS V14.01,2013-09-13 14:08:00,
2013-09-13 10:13:00,53.6,41.7,30.09,NNW,338,0.0,0.0,64,0.00,,---,0.08,VWS V14.01,2013-09-13 14:13:00,
2013-09-13 10:18:00,53.6,41.7,30.09,ENE,68,0.0,8.2,64,0.00,,---,0.08,VWS V14.01,2013-09-13 14:18:00,
2013-09-13 10:23:00,53.4,41.5,30.09,ENE,68,2.4,2.4,64,0.00,,---,0.08,VWS V14.01,2013-09-13 14:23:00,
2013-09-13 10:28:00,53.9,42.0,30.09,North,0,6.0,6.0,64,0.00,,---,0.08,VWS V14.01,2013-09-13 14:28:00,
2013-09-13 10:33:00,54.3,42.0,30.09,ENE,68,0.0,6.4,63,0.00,,---,0.08,VWS V14.01,2013-09-13 14:33:00,
2013-09-13 10:38:00,54.3,42.0,30.09,ENE,68,1.1,1.1,63,0.00,,---,0.08,VWS V14.01,2013-09-13 14:38:00,
2013-09-13 10:43:00,54.8,42.5,30.09,NE,45,2.0,2.0,63,0.00,,---,0.08,VWS V14.01,2013-09-13 14:43:00,
2013-09-13 10:48:00,55.2,42.4,30.09,NE,45,7.3,8.0,62,0.00,,---,0.08,VWS V14.01,2013-09-13 14:48:00,
2013-09-13 10:53:00,55.5,42.3,30.09,ENE,68,2.2,2.2,61,0.00,,---,0.08,VWS V14.01,2013-09-13 14:53:00,
2013-09-13 10:58:00,55.4,42.2,30.10,NNW,338,3.3,3.3,61,0.00,,---,0.08,VWS V14.01,2013-09-13 14:58:00,
2013-09-13 11:03:00,55.5,42.3,30.10,NE,45,0.0,3.8,61,0.00,,---,0.08,VWS V14.01,2013-09-13 15:03:00,
2013-09-13 11:08:00,55.4,42.2,30.10,NE,45,0.0,0.0,61,0.00,,---,0.08,VWS V14.01,2013-09-13 15:08:00,
2013-09-13 11:13:00,55.4,42.2,30.10,NNE,22,1.3,4.4,61,0.00,,---,0.08,VWS V14.01,2013-09-13 15:13:00,
2013-09-13 11:18:00,55.2,42.0,30.10,ENE,68,0.0,0.0,61,0.00,,---,0.08,VWS V14.01,2013-09-13 15:18:00,
2013-09-13 11:23:00,55.2,42.0,30.10,NW,315,0.0,0.0,61,0.00,,---,0.08,VWS V14.01,2013-09-13 15:23:00,
2013-09-13 11:28:00,55.4,42.2,30.10,NNE,22,0.0,8.2,61,0.00,,---,0.08,VWS V14.01,2013-09-13 15:28:00,
2013-09-13 11:33:00,55.5,42.3,30.10,WNW,292,0.0,0.0,61,0.00,,---,0.08,VWS V14.01,2013-09-13 15:33:00,
2013-09-13 11:38:00,55.5,41.9,30.11,North,0,0.0,0.0,60,0.00,,---,0.08,VWS V14.01,2013-09-13 15:38:00,
2013-09-13 11:43:00,55.4,41.8,30.11,NE,45,0.0,0.0,60,0.00,,---,0.08,VWS V14.01,2013-09-13 15:43:00,
2013-09-13 11:48:00,55.5,42.3,30.11,NE,45,0.0,1.5,61,0.00,,---,0.08,VWS V14.01,2013-09-13 15:48:00,
2013-09-13 11:53:00,55.7,42.5,30.11,NNE,22,3.5,3.5,61,0.00,,---,0.08,VWS V14.01,2013-09-13 15:53:00,
2013-09-13 11:58:00,55.9,42.2,30.11,ENE,68,0.0,0.0,60,0.00,,---,0.08,VWS V14.01,2013-09-13 15:58:00,
2013-09-13 12:03:00,56.3,42.6,30.10,North,0,0.0,0.0,60,0.00,,---,0.08,VWS V14.01,2013-09-13 16:03:00,
2013-09-13 12:08:00,56.3,42.6,30.11,NE,45,0.0,0.0,60,0.00,,---,0.08,VWS V14.01,2013-09-13 16:08:00,
2013-09-13 12:13:00,56.1,42.0,30.11,NNE,22,0.0,4.6,59,0.00,,---,0.08,VWS V14.01,2013-09-13 16:13:00,
2013-09-13 12:18:00,55.9,41.8,30.11,NE,45,0.0,0.0,59,0.00,,---,0.08,VWS V14.01,2013-09-13 16:18:00,
2013-09-13 12:23:00,55.9,42.2,30.10,NE,45,0.0,0.0,60,0.00,,---,0.08,VWS V14.01,2013-09-13 16:23:00,
2013-09-13 12:28:00,55.9,42.2,30.11,WNW,292,0.6,1.1,60,0.00,,---,0.08,VWS V14.01,2013-09-13 16:28:00,
2013-09-13 12:33:00,56.1,42.4,30.11,West,270,0.0,0.0,60,0.00,,---,0.08,VWS V14.01,2013-09-13 16:33:00,
2013-09-13 12:38:00,55.9,42.2,30.11,NNE,22,0.0,0.0,60,0.00,,---,0.08,VWS V14.01,2013-09-13 16:38:00,
2013-09-13 12:43:00,55.9,42.2,30.11,ENE,68,0.0,0.0,60,0.00,,---,0.08,VWS V14.01,2013-09-13 16:43:00,
2013-09-13 12:48:00,56.1,42.4,30.11,East,90,0.0,0.0,60,0.00,,---,0.08,VWS V14.01,2013-09-13 16:48:00,
2013-09-13 12:54:00,56.1,42.0,30.11,WNW,292,4.4,4.4,59,0.00,,---,0.08,VWS V14.01,2013-09-13 16:54:00,
2013-09-13 12:59:00,56.1,42.0,30.12,NNE,22,4.0,4.0,59,0.00,,---,0.08,VWS V14.01,2013-09-13 16:59:00,
2013-09-13 13:04:00,56.3,42.2,30.12,ENE,68,0.0,0.0,59,0.00,,---,0.08,VWS V14.01,2013-09-13 17:04:00,
2013-09-13 13:09:00,56.1,42.0,30.12,NE,45,7.6,7.6,59,0.00,,---,0.08,VWS V14.01,2013-09-13 17:09:00,
2013-09-13 13:14:00,56.1,42.0,30.12,NNW,338,0.0,0.0,59,0.00,,---,0.08,VWS V14.01,2013-09-13 17:14:00,
2013-09-13 13:19:00,55.9,41.8,30.11,NE,45,0.8,0.8,59,0.00,,---,0.08,VWS V14.01,2013-09-13 17:19:00,
2013-09-13 13:24:00,55.7,41.6,30.11,NE,45,0.0,0.0,59,0.00,,---,0.08,VWS V14.01,2013-09-13 17:24:00,
2013-09-13 13:29:00,55.5,41.4,30.11,NE,45,0.0,0.0,59,0.00,,---,0.08,VWS V14.01,2013-09-13 17:29:00,
2013-09-13 13:34:00,55.4,41.3,30.12,SSW,202,0.0,0.0,59,0.00,,---,0.08,VWS V14.01,2013-09-13 17:34:00,
2013-09-13 13:39:00,55.2,41.6,30.11,NE,45,0.8,0.8,60,0.00,,---,0.08,VWS V14.01,2013-09-13 17:39:00,
2013-09-13 13:44:00,55.2,41.6,30.11,South,180,0.0,0.0,60,0.00,,---,0.08,VWS V14.01,2013-09-13 17:44:00,
2013-09-13 13:50:00,55.2,41.6,30.12,NE,45,7.1,7.1,60,0.00,,---,0.08,VWS V14.01,2013-09-13 17:50:00,
2013-09-13 13:55:00,55.2,41.6,30.12,NNE,22,0.0,0.0,60,0.00,,---,0.08,VWS V14.01,2013-09-13 17:55:00,
2013-09-13 14:00:00,55.2,41.6,30.12,East,90,0.0,3.1,60,0.00,,---,0.08,VWS V14.01,2013-09-13 18:00:00,
2013-09-13 14:05:00,55.2,41.6,30.12,NNE,22,2.6,2.6,60,0.00,,---,0.08,VWS V14.01,2013-09-13 18:05:00,
2013-09-13 14:10:00,55.2,41.1,30.12,North,0,4.6,4.6,59,0.00,,---,0.08,VWS V14.01,2013-09-13 18:10:00,
2013-09-13 14:15:00,55.2,41.6,30.11,NE,45,0.0,0.0,60,0.00,,---,0.08,VWS V14.01,2013-09-13 18:15:00,
2013-09-13 14:20:00,55.2,41.1,30.11,ESE,112,0.0,2.0,59,0.00,,---,0.08,VWS V14.01,2013-09-13 18:20:00,
2013-09-13 14:25:00,55.5,41.4,30.11,ESE,112,0.0,0.0,59,0.00,,---,0.08,VWS V14.01,2013-09-13 18:25:00,
2013-09-13 14:30:00,55.7,41.6,30.11,East,90,0.0,0.0,59,0.00,,---,0.08,VWS V14.01,2013-09-13 18:30:00,
2013-09-13 14:35:00,55.9,41.3,30.11,ENE,68,0.0,0.0,58,0.00,,---,0.08,VWS V14.01,2013-09-13 18:35:00,
2013-09-13 14:40:00,55.9,41.3,30.11,North,0,2.2,2.2,58,0.00,,---,0.08,VWS V14.01,2013-09-13 18:40:00,
2013-09-13 14:45:00,55.9,40.9,30.11,SE,135,2.2,2.2,57,0.00,,---,0.08,VWS V14.01,2013-09-13 18:45:00,
2013-09-13 14:50:00,55.9,41.3,30.11,East,90,2.0,5.1,58,0.00,,---,0.08,VWS V14.01,2013-09-13 18:50:00,
2013-09-13 14:55:00,55.7,41.2,30.11,SE,135,0.0,0.0,58,0.00,,---,0.08,VWS V14.01,2013-09-13 18:55:00,
2013-09-13 15:00:00,55.7,40.7,30.11,NW,315,0.0,6.2,57,0.00,,---,0.08,VWS V14.01,2013-09-13 19:00:00,
2013-09-13 15:05:00,55.7,40.7,30.10,East,90,0.0,3.8,57,0.00,,---,0.08,VWS V14.01,2013-09-13 19:05:00,
2013-09-13 15:10:00,55.7,40.7,30.10,SSE,158,0.0,0.0,57,0.00,,---,0.08,VWS V14.01,2013-09-13 19:10:00,
2013-09-13 15:15:00,55.9,40.9,30.10,East,90,0.0,3.5,57,0.00,,---,0.08,VWS V14.01,2013-09-13 19:15:00,
2013-09-13 15:20:00,56.1,41.1,30.10,ENE,68,0.0,0.0,57,0.00,,---,0.08,VWS V14.01,2013-09-13 19:20:00,
2013-09-13 15:25:00,56.1,40.6,30.10,ENE,68,0.0,0.0,56,0.00,,---,0.08,VWS V14.01,2013-09-13 19:25:00,
2013-09-13 15:30:00,56.3,40.4,30.10,NNE,22,0.0,0.0,55,0.00,,---,0.08,VWS V14.01,2013-09-13 19:30:00,
2013-09-13 15:35:00,56.4,40.5,30.10,ENE,68,8.0,8.0,55,0.00,,---,0.08,VWS V14.01,2013-09-13 19:35:00,
2013-09-13 15:40:00,56.4,40.5,30.10,NE,45,5.1,5.1,55,0.00,,---,0.08,VWS V14.01,2013-09-13 19:40:00,
2013-09-13 15:45:00,56.8,40.3,30.09,NW,315,0.0,4.4,54,0.00,,---,0.08,VWS V14.01,2013-09-13 19:45:00,
2013-09-13 15:50:00,56.8,40.3,30.10,NNE,22,0.0,6.7,54,0.00,,---,0.08,VWS V14.01,2013-09-13 19:50:00,
2013-09-13 15:55:00,56.8,40.3,30.09,NW,315,0.0,0.0,54,0.00,,---,0.08,VWS V14.01,2013-09-13 19:55:00,
2013-09-13 16:00:00,57.0,40.5,30.09,North,0,0.6,1.3,54,0.00,,---,0.08,VWS V14.01,2013-09-13 20:00:00,
2013-09-13 16:05:00,57.0,40.5,30.09,NNE,22,0.6,0.6,54,0.00,,---,0.08,VWS V14.01,2013-09-13 20:05:00,
2013-09-13 16:10:00,57.3,40.8,30.09,NE,45,0.0,0.0,54,0.00,,---,0.08,VWS V14.01,2013-09-13 20:10:00,
2013-09-13 16:15:00,57.7,41.2,30.09,NNW,338,0.0,0.0,54,0.00,,---,0.08,VWS V14.01,2013-09-13 20:15:00,
2013-09-13 16:20:00,57.9,40.9,30.09,SSE,158,0.0,0.0,53,0.00,,---,0.08,VWS V14.01,2013-09-13 20:20:00,
2013-09-13 16:25:00,57.9,40.9,30.09,WNW,292,2.2,2.2,53,0.00,,---,0.08,VWS V14.01,2013-09-13 20:25:00,
2013-09-13 16:30:00,58.1,40.6,30.09,NW,315,0.0,0.0,52,0.00,,---,0.08,VWS V14.01,2013-09-13 20:30:00,
2013-09-13 16:35:00,58.2,40.7,30.09,NE,45,0.4,0.4,52,0.00,,---,0.08,VWS V14.01,2013-09-13 20:35:00,
2013-09-13 16:40:00,58.4,41.3,30.09,ENE,68,0.0,0.0,53,0.00,,---,0.08,VWS V14.01,2013-09-13 20:40:00,
2013-09-13 16:45:00,58.8,41.2,30.09,NNE,22,0.0,2.0,52,0.00,,---,0.08,VWS V14.01,2013-09-13 20:45:00,
2013-09-13 16:50:00,58.8,41.2,30.09,NW,315,0.0,2.4,52,0.00,,---,0.08,VWS V14.01,2013-09-13 20:50:00,
2013-09-13 16:55:00,58.8,40.7,30.08,East,90,0.0,0.0,51,0.00,,---,0.08,VWS V14.01,2013-09-13 20:55:00,
2013-09-13 17:00:00,58.8,41.2,30.09,NNE,22,5.3,5.3,52,0.00,,---,0.08,VWS V14.01,2013-09-13 21:00:00,
2013-09-13 17:05:00,59.3,41.2,30.08,NE,45,4.4,4.4,51,0.00,,---,0.08,VWS V14.01,2013-09-13 21:05:00,
2013-09-13 17:11:00,59.7,41.6,30.08,ENE,68,0.0,0.0,51,0.00,,---,0.08,VWS V14.01,2013-09-13 21:11:00,
2013-09-13 17:16:00,60.0,41.8,30.08,SSE,158,0.0,0.0,51,0.00,,---,0.08,VWS V14.01,2013-09-13 21:16:00,
2013-09-13 17:21:00,60.6,42.4,30.08,East,90,5.3,5.3,51,0.00,,---,0.08,VWS V14.01,2013-09-13 21:21:00,
2013-09-13 17:26:00,61.1,42.3,30.08,NE,45,2.0,2.0,50,0.00,,---,0.08,VWS V14.01,2013-09-13 21:26:00,
2013-09-13 17:31:00,61.7,42.4,30.08,ENE,68,0.0,0.0,49,0.00,,---,0.08,VWS V14.01,2013-09-13 21:31:00,
2013-09-13 17:36:00,62.2,42.8,30.09,NNE,22,0.0,0.0,49,0.00,,---,0.08,VWS V14.01,2013-09-13 21:36:00,
2013-09-13 17:41:00,63.5,44.0,30.08,NE,45,3.5,3.5,49,0.00,,---,0.08,VWS V14.01,2013-09-13 21:41:00,
2013-09-13 17:46:00,64.2,44.1,30.08,NNE,22,0.0,0.0,48,0.00,,---,0.08,VWS V14.01,2013-09-13 21:46:00,
2013-09-13 17:51:00,65.1,44.9,30.08,NE,45,2.0,2.0,48,0.00,,---,0.08,VWS V14.01,2013-09-13 21:51:00,
2013-09-13 17:56:00,66.0,44.7,30.08,NE,45,0.0,1.1,46,0.00,,---,0.08,VWS V14.01,2013-09-13 21:56:00,
2013-09-13 18:01:00,66.5,45.1,30.08,ENE,68,1.5,1.5,46,0.00,,---,0.08,VWS V14.01,2013-09-13 22:01:00,
2013-09-13 18:06:00,66.7,45.3,30.08,ESE,112,0.0,0.0,46,0.00,,---,0.08,VWS V14.01,2013-09-13 22:06:00,
2013-09-13 18:11:00,67.1,45.1,30.08,ENE,68,0.0,1.7,45,0.00,,---,0.08,VWS V14.01,2013-09-13 22:11:00,
2013-09-13 18:16:00,66.9,44.9,30.08,ENE,68,2.4,2.4,45,0.00,,---,0.08,VWS V14.01,2013-09-13 22:16:00,
2013-09-13 18:21:00,67.1,45.1,30.08,WSW,248,0.0,0.0,45,0.00,,---,0.08,VWS V14.01,2013-09-13 22:21:00,
2013-09-13 18:26:00,67.2,45.2,30.08,East,90,2.4,2.4,45,0.00,,---,0.08,VWS V14.01,2013-09-13 22:26:00,
2013-09-13 18:31:00,67.2,45.2,30.08,ENE,68,2.0,2.0,45,0.00,,---,0.08,VWS V14.01,2013-09-13 22:31:00,
2013-09-13 18:36:00,67.2,45.2,30.08,SE,135,0.0,0.0,45,0.00,,---,0.08,VWS V14.01,2013-09-13 22:36:00,
2013-09-13 18:41:00,67.1,45.7,30.09,NE,45,0.0,0.0,46,0.00,,---,0.08,VWS V14.01,2013-09-13 22:41:00,
2013-09-13 18:46:00,67.1,45.7,30.09,ENE,68,0.0,0.0,46,0.00,,---,0.08,VWS V14.01,2013-09-13 22:46:00,
2013-09-13 18:51:00,67.1,45.7,30.09,ENE,68,0.0,0.0,46,0.00,,---,0.08,VWS V14.01,2013-09-13 22:51:00,
2013-09-13 18:56:00,66.9,45.5,30.09,ENE,68,0.0,0.0,46,0.00,,---,0.08,VWS V14.01,2013-09-13 22:56:00,
2013-09-13 19:01:00,66.7,45.3,30.09,ESE,112,2.9,2.9,46,0.00,,---,0.08,VWS V14.01,2013-09-13 23:01:00,
2013-09-13 19:06:00,66.5,45.1,30.09,ENE,68,0.0,0.0,46,0.00,,---,0.08,VWS V14.01,2013-09-13 23:06:00,
2013-09-13 19:11:00,65.8,45.0,30.09,NE,45,0.0,0.0,47,0.00,,---,0.08,VWS V14.01,2013-09-13 23:11:00,
2013-09-13 19:16:00,65.1,44.4,30.09,NNE,22,0.0,0.0,47,0.00,,---,0.08,VWS V14.01,2013-09-13 23:16:00,
2013-09-13 19:21:00,64.0,43.4,30.09,ENE,68,0.0,0.0,47,0.00,,---,0.08,VWS V14.01,2013-09-13 23:21:00,
2013-09-13 19:26:00,62.7,42.8,30.09,NE,45,0.0,0.0,48,0.00,,---,0.08,VWS V14.01,2013-09-13 23:26:00,
2013-09-13 19:31:00,61.8,42.5,30.09,NE,45,0.0,0.0,49,0.00,,---,0.08,VWS V14.01,2013-09-13 23:31:00,
2013-09-13 19:36:00,60.9,41.6,30.10,NE,45,0.0,0.0,49,0.00,,---,0.08,VWS V14.01,2013-09-13 23:36:00,
2013-09-13 19:41:00,59.9,41.8,30.10,NE,45,0.0,2.2,51,0.00,,---,0.08,VWS V14.01,2013-09-13 23:41:00,
2013-09-13 19:46:00,59.1,41.5,30.10,ENE,68,0.0,0.0,52,0.00,,---,0.08,VWS V14.01,2013-09-13 23:46:00,
2013-09-13 19:51:00,58.4,40.9,30.10,ENE,68,0.0,0.0,52,0.00,,---,0.08,VWS V14.01,2013-09-13 23:51:00,
2013-09-13 19:56:00,57.9,40.9,30.10,NE,45,0.0,0.0,53,0.00,,---,0.08,VWS V14.01,2013-09-13 23:56:00,
2013-09-13 20:01:00,57.3,40.8,30.10,NE,45,0.0,0.0,54,0.00,,---,0.08,VWS V14.01,2013-09-14 00:01:00,
2013-09-13 20:06:00,56.8,40.8,30.10,ENE,68,0.0,0.0,55,0.00,,---,0.08,VWS V14.01,2013-09-14 00:06:00,
2013-09-13 20:11:00,56.4,40.9,30.10,ENE,68,0.0,0.0,56,0.00,,---,0.08,VWS V14.01,2013-09-14 00:11:00,
2013-09-13 20:16:00,56.1,40.6,30.11,ENE,68,0.0,0.0,56,0.00,,---,0.08,VWS V14.01,2013-09-14 00:16:00,
2013-09-13 20:21:00,55.5,40.5,30.11,ENE,68,0.0,0.0,57,0.00,,---,0.08,VWS V14.01,2013-09-14 00:21:00,
2013-09-13 20:26:00,55.2,40.7,30.11,ENE,68,0.0,0.0,58,0.00,,---,0.08,VWS V14.01,2013-09-14 00:26:00,
2013-09-13 20:31:00,55.0,40.5,30.11,ENE,68,0.0,0.0,58,0.00,,---,0.08,VWS V14.01,2013-09-14 00:31:00,
2013-09-13 20:36:00,54.6,40.6,30.11,ENE,68,0.0,0.0,59,0.00,,---,0.08,VWS V14.01,2013-09-14 00:36:00,
2013-09-13 20:41:00,54.3,40.3,30.11,ENE,68,0.0,0.0,59,0.00,,---,0.08,VWS V14.01,2013-09-14 00:41:00,
2013-09-13 20:46:00,54.1,40.1,30.11,ENE,68,0.0,0.0,59,0.00,,---,0.08,VWS V14.01,2013-09-14 00:46:00,
2013-09-13 20:51:00,53.9,40.3,30.11,ENE,68,0.0,0.0,60,0.00,,---,0.08,VWS V14.01,2013-09-14 00:51:00,
2013-09-13 20:56:00,53.7,40.2,30.12,ENE,68,0.0,0.0,60,0.00,,---,0.08,VWS V14.01,2013-09-14 00:56:00,
2013-09-13 21:01:00,53.4,40.3,30.12,ENE,68,0.0,0.0,61,0.00,,---,0.08,VWS V14.01,2013-09-14 01:01:00,
2013-09-13 21:06:00,53.4,40.3,30.12,ENE,68,0.0,0.0,61,0.00,,---,0.08,VWS V14.01,2013-09-14 01:06:00,
2013-09-13 21:11:00,53.2,40.5,30.12,ENE,68,0.0,0.0,62,0.00,,---,0.08,VWS V14.01,2013-09-14 01:11:00,
2013-09-13 21:16:00,52.8,40.2,30.12,ENE,68,0.0,0.0,62,0.00,,---,0.08,VWS V14.01,2013-09-14 01:16:00,
2013-09-13 21:21:00,52.7,40.1,30.12,ENE,68,0.0,0.0,62,0.00,,---,0.08,VWS V14.01,2013-09-14 01:21:00,
2013-09-13 21:26:00,52.5,40.3,30.12,ENE,68,0.0,0.0,63,0.00,,---,0.08,VWS V14.01,2013-09-14 01:26:00,
2013-09-13 21:31:00,52.5,40.3,30.12,ENE,68,0.0,0.0,63,0.00,,---,0.08,VWS V14.01,2013-09-14 01:31:00,
2013-09-13 21:36:00,52.3,40.1,30.12,ENE,68,0.0,0.0,63,0.00,,---,0.08,VWS V14.01,2013-09-14 01:36:00,
2013-09-13 21:41:00,52.1,39.9,30.12,ENE,68,0.0,0.0,63,0.00,,---,0.08,VWS V14.01,2013-09-14 01:41:00,
2013-09-13 21:46:00,52.1,39.9,30.12,ENE,68,0.0,0.0,63,0.00,,---,0.08,VWS V14.01,2013-09-14 01:46:00,
2013-09-13 21:51:00,51.8,39.6,30.12,ENE,68,0.0,0.0,63,0.00,,---,0.08,VWS V14.01,2013-09-14 01:51:00,
2013-09-13 21:56:00,51.6,39.4,30.12,ENE,68,0.0,0.0,63,0.00,,---,0.08,VWS V14.01,2013-09-14 01:56:00,
2013-09-13 22:01:00,51.6,39.4,30.12,ENE,68,0.0,0.0,63,0.00,,---,0.08,VWS V14.01,2013-09-14 02:01:00,
2013-09-13 22:06:00,51.4,39.2,30.12,ENE,68,0.0,0.0,63,0.00,,---,0.08,VWS V14.01,2013-09-14 02:06:00,
2013-09-13 22:11:00,51.0,38.9,30.12,ENE,68,0.0,0.0,63,0.00,,---,0.08,VWS V14.01,2013-09-14 02:11:00,
2013-09-13 22:16:00,51.0,38.9,30.12,ENE,68,0.0,0.0,63,0.00,,---,0.08,VWS V14.01,2013-09-14 02:16:00,
2013-09-13 22:21:00,50.9,38.8,30.12,ENE,68,0.0,0.0,63,0.00,,---,0.08,VWS V14.01,2013-09-14 02:21:00,
2013-09-13 22:26:00,50.7,38.6,30.11,ENE,68,0.0,0.0,63,0.00,,---,0.08,VWS V14.01,2013-09-14 02:26:00,
2013-09-13 22:31:00,50.7,38.6,30.11,ENE,68,0.0,0.0,63,0.00,,---,0.08,VWS V14.01,2013-09-14 02:31:00,
2013-09-13 22:36:00,50.5,38.4,30.12,ENE,68,0.0,0.0,63,0.00,,---,0.08,VWS V14.01,2013-09-14 02:36:00,
2013-09-13 22:41:00,50.3,38.2,30.12,ENE,68,0.0,0.0,63,0.00,,---,0.08,VWS V14.01,2013-09-14 02:41:00,
2013-09-13 22:46:00,50.1,38.4,30.12,ENE,68,0.0,0.0,64,0.00,,---,0.08,VWS V14.01,2013-09-14 02:46:00,
2013-09-13 22:51:00,50.1,38.4,30.12,ENE,68,0.0,0.0,64,0.00,,---,0.08,VWS V14.01,2013-09-14 02:51:00,
2013-09-13 22:56:00,50.1,38.4,30.12,ENE,68,0.0,0.0,64,0.00,,---,0.08,VWS V14.01,2013-09-14 02:56:00,
2013-09-13 23:01:00,49.8,38.1,30.12,ENE,68,0.0,0.0,64,0.00,,---,0.08,VWS V14.01,2013-09-14 03:01:00,
2013-09-13 23:06:00,49.8,38.1,30.12,ENE,68,0.0,0.0,64,0.00,,---,0.08,VWS V14.01,2013-09-14 03:06:00,
2013-09-13 23:11:00,49.6,38.3,30.12,ENE,68,0.0,0.0,65,0.00,,---,0.08,VWS V14.01,2013-09-14 03:11:00,
2013-09-13 23:16:00,49.6,37.9,30.12,ENE,68,0.0,0.0,64,0.00,,---,0.08,VWS V14.01,2013-09-14 03:16:00,
2013-09-13 23:21:00,49.2,38.0,30.12,ENE,68,0.0,0.0,65,0.00,,---,0.08,VWS V14.01,2013-09-14 03:21:00,
2013-09-13 23:26:00,49.1,37.9,30.12,ENE,68,0.0,0.0,65,0.00,,---,0.08,VWS V14.01,2013-09-14 03:26:00,
2013-09-13 23:31:00,48.9,38.1,30.12,ENE,68,0.0,0.0,66,0.00,,---,0.08,VWS V14.01,2013-09-14 03:31:00,
2013-09-13 23:36:00,48.7,37.9,30.12,ENE,68,0.0,0.0,66,0.00,,---,0.08,VWS V14.01,2013-09-14 03:36:00,
2013-09-13 23:41:00,48.7,37.9,30.12,ENE,68,0.0,0.0,66,0.00,,---,0.08,VWS V14.01,2013-09-14 03:41:00,
2013-09-13 23:46:00,48.7,37.9,30.12,ENE,68,0.0,0.0,66,0.00,,---,0.08,VWS V14.01,2013-09-14 03:46:00,
2013-09-13 23:51:00,48.5,38.1,30.12,ENE,68,0.0,0.0,67,0.00,,---,0.08,VWS V14.01,2013-09-14 03:51:00,
2013-09-13 23:56:00,48.3,37.9,30.12,ENE,68,0.0,0.0,67,0.00,,---,0.08,VWS V14.01,2013-09-14 03:56:00,